createdAt,value
2022-12-09T00:01:42.174Z,21.48
2022-12-09T00:04:09.922Z,21.67
2022-12-09T00:06:37.840Z,20.60
2022-12-09T00:09:05.710Z,19.65
2022-12-09T00:11:33.407Z,19.85
2022-12-09T00:14:00.983Z,20.58
2022-12-09T00:16:28.513Z,21.15
2022-12-09T00:18:57.712Z,21.55
2022-12-09T00:21:27.643Z,21.33
2022-12-09T00:23:57.076Z,21.80
2022-12-09T00:26:25.547Z,21.02
2022-12-09T00:28:53.792Z,21.80
2022-12-09T00:31:29.607Z,22.58
2022-12-09T00:33:59.341Z,22.20
2022-12-09T00:36:27.717Z,22.13
2022-12-09T00:38:57.387Z,22.55
2022-12-09T00:41:25.727Z,22.75
2022-12-09T00:43:53.384Z,22.77
2022-12-09T00:46:20.818Z,23.50
2022-12-09T00:48:48.630Z,22.75
2022-12-09T00:51:19.178Z,21.98
2022-12-09T00:53:47.571Z,23.05
2022-12-09T00:56:15.895Z,22.62
2022-12-09T00:58:43.284Z,22.15
2022-12-09T01:01:10.688Z,22.23
2022-12-09T01:03:38.773Z,23.10
2022-12-09T01:06:12.165Z,23.83
2022-12-09T01:08:40.274Z,22.52
2022-12-09T01:11:09.754Z,22.58
2022-12-09T01:13:37.366Z,23.83
2022-12-09T01:16:05.586Z,23.77
2022-12-09T01:18:33.337Z,22.80
2022-12-09T01:21:01.058Z,23.60
2022-12-09T01:23:28.672Z,23.45
2022-12-09T01:25:56.517Z,23.08
2022-12-09T01:28:24.120Z,23.17
2022-12-09T01:30:51.802Z,24.20
2022-12-09T01:33:19.223Z,23.45
2022-12-09T01:35:46.771Z,23.62
2022-12-09T01:38:14.782Z,22.95
2022-12-09T01:40:46.489Z,22.40
2022-12-09T01:43:21.469Z,23.85
2022-12-09T01:45:49.236Z,24.58
2022-12-09T01:48:19.382Z,24.90
2022-12-09T01:50:51.048Z,24.45
2022-12-09T01:53:20.409Z,23.77
2022-12-09T01:55:48.821Z,23.42
2022-12-09T01:58:17.808Z,23.67
2022-12-09T02:00:46.411Z,23.67
2022-12-09T02:03:14.860Z,24.80
2022-12-09T02:05:43.278Z,24.10
2022-12-09T02:08:17.242Z,23.20
2022-12-09T02:10:55.217Z,24.23
2022-12-09T02:13:39.752Z,24.52
2022-12-09T02:16:10.498Z,24.05
2022-12-09T02:18:43.060Z,24.05
2022-12-09T02:21:38.182Z,24.35
2022-12-09T02:24:10.768Z,24.45
2022-12-09T02:26:44.623Z,23.90
2022-12-09T02:29:32.993Z,23.85
2022-12-09T02:32:36.607Z,23.98
2022-12-09T02:35:32.286Z,23.75
2022-12-09T02:38:16.858Z,24.50
2022-12-09T02:40:54.320Z,23.90
2022-12-09T02:43:25.496Z,24.95
2022-12-09T02:45:55.480Z,24.42
2022-12-09T02:48:25.791Z,25.40
2022-12-09T02:50:53.885Z,26.30
2022-12-09T02:53:23.108Z,23.50
2022-12-09T02:55:52.719Z,24.65
2022-12-09T02:58:20.782Z,24.48
2022-12-09T03:00:48.570Z,25.40
2022-12-09T03:03:17.184Z,24.48
2022-12-09T03:06:17.875Z,23.98
2022-12-09T03:09:06.389Z,24.37
2022-12-09T03:11:34.383Z,25.20
2022-12-09T03:14:09.937Z,24.87
2022-12-09T03:16:54.565Z,24.95
2022-12-09T03:19:35.632Z,25.05
2022-12-09T03:22:08.227Z,25.77
2022-12-09T03:24:44.333Z,26.90
2022-12-09T03:27:17.079Z,25.17
2022-12-09T03:32:12.707Z,23.80
2022-12-09T03:34:42.591Z,25.17
2022-12-09T03:37:10.856Z,24.08
2022-12-09T03:39:40.100Z,24.35
2022-12-09T03:42:16.531Z,26.42
2022-12-09T03:44:52.371Z,25.50
2022-12-09T03:47:19.863Z,24.33
2022-12-09T03:49:47.794Z,24.48
2022-12-09T03:52:27.090Z,25.48
2022-12-09T03:55:00.999Z,25.60
2022-12-09T03:57:29.313Z,25.30
2022-12-09T03:59:59.991Z,25.90
2022-12-09T04:02:28.363Z,26.10
2022-12-09T04:04:56.223Z,25.42
2022-12-09T04:07:23.666Z,26.90
2022-12-09T04:09:51.272Z,26.15
2022-12-09T04:12:19.100Z,25.98
2022-12-09T04:14:46.535Z,25.48
2022-12-09T04:17:14.141Z,26.67
2022-12-09T04:19:42.560Z,26.77
2022-12-09T04:22:10.006Z,26.67
2022-12-09T04:24:37.688Z,26.33
2022-12-09T04:27:05.716Z,25.75
2022-12-09T04:29:33.234Z,25.98
2022-12-09T04:32:00.724Z,27.50
2022-12-09T04:34:28.433Z,26.30
2022-12-09T04:36:55.751Z,27.10
2022-12-09T04:39:23.415Z,27.52
2022-12-09T04:41:51.024Z,27.67
2022-12-09T04:44:18.310Z,26.90
2022-12-09T04:46:45.761Z,27.87
2022-12-09T04:49:13.462Z,27.25
2022-12-09T04:51:41.100Z,27.67
2022-12-09T04:54:12.592Z,28.42
2022-12-09T04:59:08.594Z,27.70
2022-12-09T05:01:36.398Z,27.80
2022-12-09T05:04:04.529Z,29.05
2022-12-09T05:06:32.239Z,27.85
2022-12-09T05:09:00.342Z,27.85
2022-12-09T05:11:28.283Z,28.85
2022-12-09T05:13:56.029Z,29.60
2022-12-09T05:16:24.088Z,27.52
2022-12-09T05:18:52.446Z,29.00
2022-12-09T05:21:20.950Z,28.73
2022-12-09T05:23:49.539Z,28.30
2022-12-09T05:26:19.931Z,29.33
2022-12-09T05:28:47.654Z,28.45
2022-12-09T05:31:19.836Z,30.20
2022-12-09T05:33:48.749Z,29.35
2022-12-09T05:36:19.655Z,31.10
2022-12-09T05:38:48.953Z,28.92
2022-12-09T05:41:17.927Z,29.73
2022-12-09T05:43:45.824Z,29.55
2022-12-09T05:46:14.782Z,29.70
2022-12-09T05:48:42.979Z,31.52
2022-12-09T05:51:15.450Z,30.92
2022-12-09T05:53:43.330Z,29.25
2022-12-09T05:56:14.608Z,29.98
2022-12-09T05:58:42.151Z,30.40
2022-12-09T06:01:10.766Z,28.67
2022-12-09T06:03:38.764Z,30.30
2022-12-09T06:06:09.487Z,29.67
2022-12-09T06:08:37.941Z,31.15
2022-12-09T06:11:11.876Z,29.40
2022-12-09T06:13:39.438Z,29.33
2022-12-09T06:16:08.489Z,30.05
2022-12-09T06:18:36.936Z,31.48
2022-12-09T06:21:10.160Z,30.65
2022-12-09T06:23:41.375Z,31.75
2022-12-09T06:26:16.013Z,30.67
2022-12-09T06:28:44.024Z,29.17
2022-12-09T06:31:11.726Z,30.55
2022-12-09T06:33:57.097Z,29.55
2022-12-09T06:36:27.104Z,31.23
2022-12-09T06:38:55.450Z,30.52
2022-12-09T06:41:23.242Z,28.60
2022-12-09T06:43:51.429Z,32.30
2022-12-09T06:46:23.346Z,29.65
2022-12-09T06:51:20.359Z,29.23
2022-12-09T06:53:48.215Z,30.25
2022-12-09T06:56:16.930Z,29.85
2022-12-09T06:58:45.289Z,29.83
2022-12-09T07:01:15.616Z,29.77
2022-12-09T07:03:50.361Z,29.92
2022-12-09T07:06:26.719Z,29.12
2022-12-09T07:08:55.694Z,28.35
2022-12-09T07:11:23.662Z,28.38
2022-12-09T07:13:51.681Z,28.60
2022-12-09T07:16:19.525Z,29.50
2022-12-09T07:18:47.691Z,29.48
2022-12-09T07:21:18.098Z,27.85
2022-12-09T07:23:46.623Z,27.48
2022-12-09T07:26:14.386Z,26.90
2022-12-09T07:28:44.209Z,28.08
2022-12-09T07:31:26.585Z,28.33
2022-12-09T07:33:56.392Z,28.95
2022-12-09T07:36:26.515Z,27.73
2022-12-09T07:38:58.072Z,27.25
2022-12-09T07:41:25.977Z,27.33
2022-12-09T07:43:53.715Z,27.15
2022-12-09T07:46:22.626Z,27.25
2022-12-09T07:48:50.502Z,25.23
2022-12-09T07:51:18.620Z,26.58
2022-12-09T07:53:46.940Z,27.37
2022-12-09T07:56:15.831Z,26.55
2022-12-09T07:58:46.994Z,26.83
2022-12-09T08:01:19.761Z,25.62
2022-12-09T08:03:48.779Z,26.83
2022-12-09T08:06:22.549Z,27.10
2022-12-09T08:08:51.193Z,25.98
2022-12-09T08:11:24.193Z,25.88
2022-12-09T08:13:52.614Z,24.85
2022-12-09T08:16:22.076Z,23.70
2022-12-09T08:18:51.002Z,23.27
2022-12-09T08:21:22.821Z,24.42
2022-12-09T08:23:50.934Z,23.85
2022-12-09T08:26:21.469Z,23.38
2022-12-09T08:28:49.548Z,23.25
2022-12-09T08:31:19.771Z,23.77
2022-12-09T08:33:48.123Z,23.42
2022-12-09T08:36:21.715Z,21.40
2022-12-09T08:38:50.164Z,21.55
2022-12-09T08:41:20.802Z,22.08
2022-12-09T08:43:48.425Z,20.67
2022-12-09T08:46:16.343Z,20.10
2022-12-09T08:48:44.177Z,21.55
2022-12-09T08:51:12.343Z,20.37
2022-12-09T08:53:40.684Z,19.87
2022-12-09T08:56:10.266Z,20.50
2022-12-09T08:58:38.102Z,22.30
2022-12-09T09:01:06.440Z,22.67
2022-12-09T09:03:34.290Z,20.50
2022-12-09T09:06:09.184Z,19.37
2022-12-09T09:08:39.118Z,19.85
2022-12-09T09:11:12.410Z,19.92
2022-12-09T09:13:41.529Z,19.87
2022-12-09T09:16:12.287Z,20.62
2022-12-09T09:18:40.980Z,20.90
2022-12-09T09:21:11.047Z,20.23
2022-12-09T09:23:38.781Z,21.55
2022-12-09T09:26:11.001Z,20.05
2022-12-09T09:28:39.206Z,20.40
2022-12-09T09:31:08.666Z,20.08
2022-12-09T09:33:37.238Z,20.17
2022-12-09T09:36:10.449Z,19.90
2022-12-09T09:38:39.424Z,20.45
2022-12-09T09:41:28.631Z,21.52
2022-12-09T09:43:56.689Z,22.13
2022-12-09T09:46:36.058Z,22.42
2022-12-09T09:49:06.755Z,21.77
2022-12-09T09:51:35.765Z,23.12
2022-12-09T09:54:08.434Z,22.85
2022-12-09T09:57:03.652Z,22.02
2022-12-09T09:59:34.189Z,21.48
2022-12-09T10:02:07.960Z,21.25
2022-12-09T10:04:44.361Z,20.60
2022-12-09T10:07:37.807Z,20.12
2022-12-09T10:10:32.397Z,20.60
2022-12-09T10:13:43.124Z,19.98
2022-12-09T10:16:21.050Z,20.58
2022-12-09T10:19:02.495Z,21.85
2022-12-09T10:21:34.780Z,20.90
2022-12-09T10:24:38.768Z,21.83
2022-12-09T10:27:29.843Z,23.00
2022-12-09T10:30:13.010Z,21.45
2022-12-09T10:32:41.343Z,21.62
2022-12-09T10:35:21.185Z,21.55
2022-12-09T10:37:52.603Z,21.62
2022-12-09T10:40:35.543Z,22.15
2022-12-09T10:43:44.229Z,20.27
2022-12-09T10:46:24.306Z,19.52
2022-12-09T10:48:56.130Z,20.15
2022-12-09T10:51:29.945Z,19.47
2022-12-09T10:54:00.021Z,20.33
2022-12-09T10:56:35.053Z,20.98
2022-12-09T10:59:29.973Z,20.37
2022-12-09T11:02:02.848Z,19.58
2022-12-09T11:04:33.972Z,17.70
2022-12-09T11:07:05.233Z,17.30
2022-12-09T11:09:43.851Z,17.33
2022-12-09T11:12:38.489Z,18.37
2022-12-09T11:15:11.739Z,17.02
2022-12-09T11:17:42.485Z,18.25
2022-12-09T11:20:17.569Z,18.10
2022-12-09T11:22:45.992Z,17.67
2022-12-09T11:25:27.328Z,17.23
2022-12-09T11:28:18.178Z,17.90
2022-12-09T11:31:27.011Z,18.45
2022-12-09T11:33:49.177Z,17.75
2022-12-09T11:36:23.024Z,18.42
2022-12-09T11:38:52.466Z,17.77
2022-12-09T11:41:45.095Z,15.57
2022-12-09T11:44:25.533Z,20.33
2022-12-09T11:47:07.958Z,19.10
2022-12-09T11:49:43.800Z,17.62
2022-12-09T11:52:17.282Z,17.62
2022-12-09T11:54:50.138Z,18.10
2022-12-09T11:57:34.549Z,16.60
2022-12-09T12:00:15.367Z,17.48
2022-12-09T12:02:47.607Z,17.92
2022-12-09T12:05:25.743Z,18.67
2022-12-09T12:08:18.021Z,17.92
2022-12-09T12:11:11.853Z,17.90
2022-12-09T12:13:47.887Z,17.95
2022-12-09T12:16:49.540Z,17.17
2022-12-09T12:19:38.939Z,16.40
2022-12-09T12:22:24.925Z,17.65
2022-12-09T12:24:55.386Z,17.83
2022-12-09T12:27:47.062Z,17.08
2022-12-09T12:30:18.965Z,16.50
2022-12-09T12:36:04.279Z,16.17
2022-12-09T12:38:54.875Z,16.27
2022-12-09T12:41:40.303Z,15.90
2022-12-09T12:44:44.611Z,16.00
2022-12-09T12:47:20.569Z,15.45
2022-12-09T12:50:17.244Z,15.95
2022-12-09T12:52:57.192Z,16.83
2022-12-09T12:55:41.699Z,15.75
2022-12-09T12:58:28.055Z,16.33
2022-12-09T13:01:22.396Z,17.35
2022-12-09T13:04:25.321Z,16.42
2022-12-09T13:07:17.140Z,15.75
2022-12-09T13:10:03.640Z,16.10
2022-12-09T13:12:56.971Z,15.25
2022-12-09T13:15:32.391Z,15.13
2022-12-09T13:18:07.247Z,15.45
2022-12-09T13:20:46.211Z,16.40
2022-12-09T13:23:32.280Z,17.25
2022-12-09T13:26:13.646Z,16.58
2022-12-09T13:28:43.962Z,17.02
2022-12-09T13:31:11.600Z,17.48
2022-12-09T13:33:53.839Z,17.12
2022-12-09T13:36:39.674Z,16.08
2022-12-09T13:39:11.078Z,16.55
2022-12-09T13:42:02.023Z,16.48
2022-12-09T13:44:34.939Z,17.02
2022-12-09T13:47:28.452Z,17.95
2022-12-09T13:49:58.983Z,17.15
2022-12-09T13:52:48.103Z,17.87
2022-12-09T13:55:40.222Z,16.05
2022-12-09T13:58:19.416Z,16.90
2022-12-09T14:01:04.448Z,16.73
2022-12-09T14:03:36.620Z,17.75
2022-12-09T14:06:38.482Z,16.07
2022-12-09T14:09:43.816Z,18.50
2022-12-09T14:12:13.866Z,17.35
2022-12-09T14:14:44.429Z,17.42
2022-12-09T14:17:40.649Z,17.98
2022-12-09T14:20:27.851Z,18.20
2022-12-09T14:23:24.610Z,18.02
2022-12-09T14:26:00.046Z,17.42
2022-12-09T14:28:36.578Z,17.30
2022-12-09T14:31:08.645Z,17.87
2022-12-09T14:33:39.342Z,18.62
2022-12-09T14:36:13.059Z,17.15
2022-12-09T14:39:15.635Z,16.30
2022-12-09T14:41:46.295Z,17.48
2022-12-09T14:44:47.440Z,16.83
2022-12-09T14:47:22.134Z,17.52
2022-12-09T14:49:50.755Z,17.17
2022-12-09T14:52:30.958Z,17.42
2022-12-09T14:55:01.274Z,17.08
2022-12-09T14:57:33.102Z,21.00
2022-12-09T15:00:00.403Z,17.75
2022-12-09T15:02:30.455Z,18.30
2022-12-09T15:05:00.605Z,17.23
2022-12-09T15:07:33.072Z,16.98
2022-12-09T15:10:07.947Z,17.33
2022-12-09T15:12:36.651Z,16.92
2022-12-09T15:15:10.935Z,16.70
2022-12-09T15:17:44.958Z,17.02
2022-12-09T15:20:48.907Z,17.75
2022-12-09T15:23:20.648Z,16.25
2022-12-09T15:25:56.667Z,17.67
2022-12-09T15:28:27.234Z,17.87
2022-12-09T15:30:57.058Z,20.10
2022-12-09T15:33:24.863Z,19.12
2022-12-09T15:36:02.481Z,19.08
2022-12-09T15:38:40.494Z,18.37
2022-12-09T15:41:27.590Z,17.67
2022-12-09T15:43:59.444Z,17.98
2022-12-09T15:46:27.906Z,17.10
2022-12-09T15:48:57.495Z,16.83
2022-12-09T15:51:26.385Z,17.75
2022-12-09T15:54:06.170Z,16.87
2022-12-09T15:56:44.407Z,17.90
2022-12-09T15:59:24.813Z,16.52
2022-12-09T16:01:54.092Z,17.52
2022-12-09T16:04:35.955Z,16.42
2022-12-09T16:07:12.931Z,16.55
2022-12-09T16:09:40.828Z,15.40
2022-12-09T16:12:27.735Z,15.35
2022-12-09T16:14:55.703Z,14.98
2022-12-09T16:17:26.999Z,17.42
2022-12-09T16:19:54.682Z,17.07
2022-12-09T16:22:26.410Z,17.27
2022-12-09T16:25:24.539Z,17.85
2022-12-09T16:28:03.604Z,17.95
2022-12-09T16:30:32.991Z,18.17
2022-12-09T16:33:02.158Z,16.25
2022-12-09T16:35:42.766Z,16.77
2022-12-09T16:38:10.315Z,17.12
2022-12-09T16:40:43.656Z,17.27
2022-12-09T16:43:17.357Z,16.45
2022-12-09T16:46:02.035Z,17.50
2022-12-09T16:48:30.306Z,16.65
2022-12-09T16:51:10.568Z,15.70
2022-12-09T16:53:43.185Z,15.88
2022-12-09T16:56:20.636Z,15.25
2022-12-09T16:58:48.427Z,16.50
2022-12-09T17:01:17.801Z,15.52
2022-12-09T17:03:58.884Z,15.20
2022-12-09T17:06:26.623Z,13.70
2022-12-09T17:08:53.937Z,13.98
2022-12-09T17:11:21.787Z,12.37
2022-12-09T17:13:50.111Z,14.02
2022-12-09T17:16:17.580Z,14.23
2022-12-09T17:18:45.120Z,14.68
2022-12-09T17:21:15.882Z,14.57
2022-12-09T17:23:44.042Z,14.65
2022-12-09T17:26:13.991Z,15.35
2022-12-09T17:28:42.426Z,15.00
2022-12-09T17:31:15.635Z,14.60
2022-12-09T17:33:45.940Z,14.75
2022-12-09T17:36:14.383Z,14.60
2022-12-09T17:38:42.168Z,13.60
2022-12-09T17:41:13.233Z,13.80
2022-12-09T17:43:40.763Z,14.15
2022-12-09T17:46:09.828Z,14.35
2022-12-09T17:48:39.851Z,13.85
2022-12-09T17:51:09.836Z,13.70
2022-12-09T17:53:38.817Z,13.90
2022-12-09T17:56:18.106Z,13.62
2022-12-09T17:58:46.495Z,13.90
2022-12-09T18:01:19.653Z,13.93
2022-12-09T18:03:56.040Z,13.88
2022-12-09T18:06:27.775Z,13.02
2022-12-09T18:08:55.438Z,13.73
2022-12-09T18:11:23.500Z,12.90
2022-12-09T18:13:51.260Z,13.07
2022-12-09T18:16:19.752Z,14.23
2022-12-09T18:18:47.503Z,12.80
2022-12-09T18:21:16.274Z,14.25
2022-12-09T18:23:44.380Z,14.00
2022-12-09T18:26:14.415Z,14.63
2022-12-09T18:28:41.806Z,11.55
2022-12-09T18:31:12.699Z,10.65
2022-12-09T18:33:40.862Z,10.93
2022-12-09T18:36:08.866Z,11.80
2022-12-09T18:38:37.285Z,12.75
2022-12-09T18:41:04.833Z,12.70
2022-12-09T18:43:38.039Z,12.98
2022-12-09T18:46:08.778Z,14.45
2022-12-09T18:48:36.882Z,12.63
2022-12-09T18:51:04.544Z,10.55
2022-12-09T18:53:32.154Z,9.70
2022-12-09T18:55:59.513Z,9.30
2022-12-09T18:58:49.602Z,9.00
2022-12-09T19:01:14.931Z,8.32
2022-12-09T19:03:42.320Z,8.75
2022-12-09T19:06:22.050Z,8.40
2022-12-09T19:08:54.358Z,8.85
2022-12-09T19:11:22.859Z,9.73
2022-12-09T19:13:50.536Z,8.95
2022-12-09T19:16:17.961Z,8.88
2022-12-09T19:18:45.806Z,8.65
2022-12-09T19:21:16.146Z,9.77
2022-12-09T19:23:45.119Z,8.07
2022-12-09T19:26:20.270Z,9.32
2022-12-09T19:29:07.455Z,8.07
2022-12-09T19:31:38.065Z,8.25
2022-12-09T19:34:30.828Z,7.50
2022-12-09T19:39:30.024Z,7.82
2022-12-09T19:41:58.447Z,8.55
2022-12-09T19:44:52.624Z,8.00
2022-12-09T19:47:14.172Z,7.95
2022-12-09T19:49:43.342Z,7.37
2022-12-09T19:52:11.961Z,6.95
2022-12-09T19:54:39.696Z,7.15
2022-12-09T19:57:07.063Z,6.80
2022-12-09T19:59:35.559Z,7.53
2022-12-09T20:02:03.402Z,7.37
2022-12-09T20:07:19.424Z,6.95
2022-12-09T20:09:47.439Z,7.10
2022-12-09T20:12:14.764Z,6.22
2022-12-09T20:14:43.151Z,7.43
2022-12-09T20:17:11.011Z,6.60
2022-12-09T20:19:38.356Z,6.05
2022-12-09T20:22:05.654Z,6.03
2022-12-09T20:24:33.365Z,6.55
2022-12-09T20:27:00.768Z,5.82
2022-12-09T20:29:32.451Z,6.07
2022-12-09T20:32:03.343Z,5.78
2022-12-09T20:34:30.719Z,5.28
2022-12-09T20:36:58.162Z,5.47
2022-12-09T20:39:25.731Z,6.97
2022-12-09T20:41:53.092Z,5.90
2022-12-09T20:44:20.594Z,5.47
2022-12-09T20:46:50.412Z,4.82
2022-12-09T20:49:21.503Z,5.22
2022-12-09T20:51:49.322Z,5.20
2022-12-09T20:54:16.736Z,6.12
2022-12-09T20:56:44.157Z,4.35
2022-12-09T20:59:13.525Z,9.40
2022-12-09T21:01:41.389Z,8.95
2022-12-09T21:04:09.048Z,4.95
2022-12-09T21:06:38.375Z,4.10
2022-12-09T21:09:09.103Z,4.50
2022-12-09T21:11:37.376Z,8.05
2022-12-09T21:14:06.789Z,5.93
2022-12-09T21:16:37.685Z,5.70
2022-12-09T21:19:07.260Z,4.80
2022-12-09T21:21:37.867Z,7.05
2022-12-09T21:24:06.005Z,7.85
2022-12-09T21:26:33.385Z,6.93
2022-12-09T21:29:01.491Z,8.05
2022-12-09T21:31:32.474Z,7.55
2022-12-09T21:34:02.964Z,6.70
2022-12-09T21:36:32.564Z,7.50
2022-12-09T21:39:00.107Z,7.18
2022-12-09T21:41:29.915Z,6.78
2022-12-09T21:43:57.976Z,7.75
2022-12-09T21:46:30.468Z,7.50
2022-12-09T21:49:03.607Z,7.12
2022-12-09T21:51:32.794Z,7.60
2022-12-09T21:54:00.936Z,7.43
2022-12-09T21:56:32.647Z,6.30
2022-12-09T21:59:00.773Z,6.68
2022-12-09T22:01:30.951Z,6.07
2022-12-09T22:04:00.081Z,6.40
2022-12-09T22:06:28.339Z,6.75
2022-12-09T22:08:55.914Z,6.50
2022-12-09T22:11:25.540Z,5.65
2022-12-09T22:13:53.484Z,5.78
2022-12-09T22:16:26.417Z,6.85
2022-12-09T22:18:56.056Z,7.35
2022-12-09T22:21:26.377Z,8.93
2022-12-09T22:24:04.105Z,8.18
2022-12-09T22:26:31.868Z,9.10
2022-12-09T22:29:01.075Z,11.00
2022-12-09T22:31:31.331Z,10.77
2022-12-09T22:34:01.335Z,10.05
2022-12-09T22:36:28.716Z,9.13
2022-12-09T22:38:56.059Z,9.73
2022-12-09T22:41:27.712Z,9.25
2022-12-09T22:43:55.992Z,11.18
2022-12-09T22:46:27.211Z,10.18
2022-12-09T22:48:55.625Z,9.93
2022-12-09T22:51:25.963Z,8.68
2022-12-09T22:53:55.055Z,10.23
2022-12-09T22:56:23.188Z,10.20
2022-12-09T22:58:51.048Z,11.30
2022-12-09T23:01:21.414Z,9.57
2022-12-09T23:03:48.756Z,11.25
2022-12-09T23:06:16.370Z,10.57
2022-12-09T23:08:44.869Z,9.18
2022-12-09T23:11:14.623Z,10.23
2022-12-09T23:13:42.530Z,10.18
2022-12-09T23:16:13.138Z,9.85
2022-12-09T23:18:41.412Z,9.20
2022-12-09T23:21:18.077Z,10.50
2022-12-09T23:23:46.150Z,10.85
2022-12-09T23:26:16.554Z,10.65
2022-12-09T23:28:46.752Z,11.98
2022-12-09T23:31:17.312Z,14.52
2022-12-09T23:33:46.923Z,14.00
2022-12-09T23:36:23.720Z,14.55
2022-12-09T23:38:51.775Z,13.52
2022-12-09T23:41:20.595Z,15.13
2022-12-09T23:43:49.173Z,13.32
2022-12-09T23:46:18.630Z,13.20
2022-12-09T23:48:47.954Z,12.80
2022-12-09T23:51:29.813Z,13.75
2022-12-09T23:54:00.264Z,13.15
2022-12-09T23:56:30.563Z,14.60
2022-12-09T23:59:00.462Z,11.95
